sensor_id;sensor_type;location;lat;lon;timestamp;P1;durP1;ratioP1;P2;durP2;ratioP2
29416;SDS011;28421;51.030;4.006;2022-12-20T06:02:17;5.25;;;2.60;;
29416;SDS011;28421;51.030;4.006;2022-12-20T06:04:44;4.43;;;2.40;;
29416;SDS011;28421;51.030;4.006;2022-12-20T06:07:16;3.42;;;2.70;;
29416;SDS011;28421;51.030;4.006;2022-12-20T06:09:45;4.43;;;2.22;;
29416;SDS011;28421;51.030;4.006;2022-12-20T06:12:14;4.18;;;2.58;;
29416;SDS011;28421;51.030;4.006;2022-12-20T06:14:40;8.20;;;2.92;;
29416;SDS011;28421;51.030;4.006;2022-12-20T06:17:06;2.92;;;2.60;;
29416;SDS011;28421;51.030;4.006;2022-12-20T06:19:32;4.50;;;2.10;;
29416;SDS011;28421;51.030;4.006;2022-12-20T06:21:58;2.88;;;2.08;;
29416;SDS011;28421;51.030;4.006;2022-12-20T06:24:34;5.15;;;2.60;;
29416;SDS011;28421;51.030;4.006;2022-12-20T06:27:01;4.07;;;3.40;;
29416;SDS011;28421;51.030;4.006;2022-12-20T06:29:28;6.93;;;2.40;;
29416;SDS011;28421;51.030;4.006;2022-12-20T06:32:01;4.60;;;2.80;;
29416;SDS011;28421;51.030;4.006;2022-12-20T06:34:30;3.67;;;1.90;;
29416;SDS011;28421;51.030;4.006;2022-12-20T06:36:56;3.42;;;2.47;;
29416;SDS011;28421;51.030;4.006;2022-12-20T06:39:25;3.63;;;2.25;;
29416;SDS011;28421;51.030;4.006;2022-12-20T06:41:57;4.35;;;2.05;;
29416;SDS011;28421;51.030;4.006;2022-12-20T06:44:24;2.75;;;2.00;;
29416;SDS011;28421;51.030;4.006;2022-12-20T06:46:50;4.32;;;2.83;;
29416;SDS011;28421;51.030;4.006;2022-12-20T06:49:15;6.32;;;2.00;;
29416;SDS011;28421;51.030;4.006;2022-12-20T06:51:41;5.22;;;2.45;;
29416;SDS011;28421;51.030;4.006;2022-12-20T06:54:07;3.45;;;2.00;;
29416;SDS011;28421;51.030;4.006;2022-12-20T06:56:34;4.72;;;2.20;;
29416;SDS011;28421;51.030;4.006;2022-12-20T06:58:59;2.85;;;2.00;;
29416;SDS011;28421;51.030;4.006;2022-12-20T07:01:25;3.90;;;2.42;;
29416;SDS011;28421;51.030;4.006;2022-12-20T07:03:50;5.82;;;2.03;;
29416;SDS011;28421;51.030;4.006;2022-12-20T07:06:15;2.58;;;2.38;;
29416;SDS011;28421;51.030;4.006;2022-12-20T07:08:41;4.45;;;1.92;;
29416;SDS011;28421;51.030;4.006;2022-12-20T07:11:06;3.35;;;2.10;;
29416;SDS011;28421;51.030;4.006;2022-12-20T07:13:32;2.70;;;1.77;;
29416;SDS011;28421;51.030;4.006;2022-12-20T07:15:59;7.22;;;2.97;;
29416;SDS011;28421;51.030;4.006;2022-12-20T07:18:25;4.50;;;2.47;;
29416;SDS011;28421;51.030;4.006;2022-12-20T07:20:50;3.08;;;2.30;;
29416;SDS011;28421;51.030;4.006;2022-12-20T07:23:16;2.78;;;1.80;;
29416;SDS011;28421;51.030;4.006;2022-12-20T07:25:42;3.95;;;2.00;;
29416;SDS011;28421;51.030;4.006;2022-12-20T07:28:08;5.47;;;2.35;;
29416;SDS011;28421;51.030;4.006;2022-12-20T07:30:33;4.35;;;2.22;;
29416;SDS011;28421;51.030;4.006;2022-12-20T07:32:59;4.53;;;2.10;;
29416;SDS011;28421;51.030;4.006;2022-12-20T07:35:24;7.13;;;2.35;;
29416;SDS011;28421;51.030;4.006;2022-12-20T07:37:50;4.15;;;2.20;;
29416;SDS011;28421;51.030;4.006;2022-12-20T07:40:16;4.32;;;2.25;;
29416;SDS011;28421;51.030;4.006;2022-12-20T07:42:41;5.15;;;2.33;;
29416;SDS011;28421;51.030;4.006;2022-12-20T07:45:07;2.67;;;2.47;;
29416;SDS011;28421;51.030;4.006;2022-12-20T07:47:32;9.68;;;2.88;;
29416;SDS011;28421;51.030;4.006;2022-12-20T07:49:59;3.20;;;2.45;;
29416;SDS011;28421;51.030;4.006;2022-12-20T07:52:25;2.97;;;2.00;;
29416;SDS011;28421;51.030;4.006;2022-12-20T07:54:52;2.63;;;2.05;;
29416;SDS011;28421;51.030;4.006;2022-12-20T07:57:28;3.25;;;2.22;;
29416;SDS011;28421;51.030;4.006;2022-12-20T08:00:00;7.57;;;2.30;;
29416;SDS011;28421;51.030;4.006;2022-12-20T08:02:41;5.07;;;2.70;;
29416;SDS011;28421;51.030;4.006;2022-12-20T08:05:11;2.95;;;1.92;;
29416;SDS011;28421;51.030;4.006;2022-12-20T08:07:37;6.15;;;2.33;;
29416;SDS011;28421;51.030;4.006;2022-12-20T08:10:05;5.57;;;2.35;;
29416;SDS011;28421;51.030;4.006;2022-12-20T08:12:32;5.53;;;3.15;;
29416;SDS011;28421;51.030;4.006;2022-12-20T08:14:58;7.38;;;2.70;;
29416;SDS011;28421;51.030;4.006;2022-12-20T08:17:23;4.70;;;3.13;;
29416;SDS011;28421;51.030;4.006;2022-12-20T08:19:49;7.70;;;2.80;;
29416;SDS011;28421;51.030;4.006;2022-12-20T08:22:17;4.20;;;2.58;;
29416;SDS011;28421;51.030;4.006;2022-12-20T08:24:43;6.45;;;3.05;;
29416;SDS011;28421;51.030;4.006;2022-12-20T08:27:09;3.78;;;2.92;;
29416;SDS011;28421;51.030;4.006;2022-12-20T08:29:34;6.30;;;2.80;;
29416;SDS011;28421;51.030;4.006;2022-12-20T08:32:00;6.03;;;4.30;;
29416;SDS011;28421;51.030;4.006;2022-12-20T08:34:25;6.90;;;3.05;;
29416;SDS011;28421;51.030;4.006;2022-12-20T08:36:51;4.60;;;3.25;;
29416;SDS011;28421;51.030;4.006;2022-12-20T08:39:16;15.05;;;3.15;;
29416;SDS011;28421;51.030;4.006;2022-12-20T08:41:42;6.53;;;3.30;;
29416;SDS011;28421;51.030;4.006;2022-12-20T08:44:07;6.32;;;3.42;;
29416;SDS011;28421;51.030;4.006;2022-12-20T08:46:34;7.90;;;3.10;;
29416;SDS011;28421;51.030;4.006;2022-12-20T08:49:01;3.55;;;2.80;;
29416;SDS011;28421;51.030;4.006;2022-12-20T08:51:27;5.88;;;2.40;;
29416;SDS011;28421;51.030;4.006;2022-12-20T08:53:53;8.80;;;2.65;;
29416;SDS011;28421;51.030;4.006;2022-12-20T08:56:18;2.95;;;2.33;;
29416;SDS011;28421;51.030;4.006;2022-12-20T08:58:44;10.00;;;2.65;;
29416;SDS011;28421;51.030;4.006;2022-12-20T09:01:11;5.43;;;3.08;;
29416;SDS011;28421;51.030;4.006;2022-12-20T09:03:39;5.38;;;3.08;;
29416;SDS011;28421;51.030;4.006;2022-12-20T09:06:08;3.97;;;2.72;;
29416;SDS011;28421;51.030;4.006;2022-12-20T09:08:36;7.35;;;3.75;;
29416;SDS011;28421;51.030;4.006;2022-12-20T09:11:03;6.53;;;3.22;;
29416;SDS011;28421;51.030;4.006;2022-12-20T09:13:33;3.03;;;2.33;;
29416;SDS011;28421;51.030;4.006;2022-12-20T09:16:03;4.47;;;2.88;;
29416;SDS011;28421;51.030;4.006;2022-12-20T09:18:29;6.90;;;3.08;;
29416;SDS011;28421;51.030;4.006;2022-12-20T09:20:58;8.25;;;2.95;;
29416;SDS011;28421;51.030;4.006;2022-12-20T09:23:25;4.93;;;2.67;;
29416;SDS011;28421;51.030;4.006;2022-12-20T09:25:51;6.43;;;2.78;;
29416;SDS011;28421;51.030;4.006;2022-12-20T09:28:16;5.75;;;2.75;;
29416;SDS011;28421;51.030;4.006;2022-12-20T09:30:41;5.78;;;2.40;;
29416;SDS011;28421;51.030;4.006;2022-12-20T09:33:07;4.93;;;2.40;;
29416;SDS011;28421;51.030;4.006;2022-12-20T09:35:32;6.90;;;3.45;;
29416;SDS011;28421;51.030;4.006;2022-12-20T09:37:58;7.82;;;2.53;;
29416;SDS011;28421;51.030;4.006;2022-12-20T09:40:25;8.55;;;3.22;;
29416;SDS011;28421;51.030;4.006;2022-12-20T09:42:54;7.60;;;3.17;;
29416;SDS011;28421;51.030;4.006;2022-12-20T09:45:25;8.50;;;4.22;;
29416;SDS011;28421;51.030;4.006;2022-12-20T09:47:53;13.27;;;5.03;;
29416;SDS011;28421;51.030;4.006;2022-12-20T09:50:19;10.48;;;4.53;;
29416;SDS011;28421;51.030;4.006;2022-12-20T10:01:25;16.83;;;5.03;;
29416;SDS011;28421;51.030;4.006;2022-12-20T10:03:53;29.08;;;8.50;;
29416;SDS011;28421;51.030;4.006;2022-12-20T10:14:59;21.23;;;8.77;;
29416;SDS011;28421;51.030;4.006;2022-12-20T10:17:46;8.65;;;5.13;;
29416;SDS011;28421;51.030;4.006;2022-12-20T10:20:36;5.43;;;3.88;;
29416;SDS011;28421;51.030;4.006;2022-12-20T10:23:16;5.78;;;3.80;;
29416;SDS011;28421;51.030;4.006;2022-12-20T10:25:50;4.10;;;3.00;;
29416;SDS011;28421;51.030;4.006;2022-12-20T10:28:18;7.10;;;3.15;;
29416;SDS011;28421;51.030;4.006;2022-12-20T10:30:48;9.75;;;4.07;;
29416;SDS011;28421;51.030;4.006;2022-12-20T10:33:22;4.13;;;3.17;;
29416;SDS011;28421;51.030;4.006;2022-12-20T10:35:48;10.82;;;3.30;;
29416;SDS011;28421;51.030;4.006;2022-12-20T10:38:15;4.28;;;3.30;;
29416;SDS011;28421;51.030;4.006;2022-12-20T10:41:00;6.55;;;3.58;;
29416;SDS011;28421;51.030;4.006;2022-12-20T10:43:27;11.10;;;4.32;;
29416;SDS011;28421;51.030;4.006;2022-12-20T10:46:15;6.88;;;3.55;;
29416;SDS011;28421;51.030;4.006;2022-12-20T10:48:41;7.13;;;3.78;;
29416;SDS011;28421;51.030;4.006;2022-12-20T10:56:23;6.45;;;3.95;;
29416;SDS011;28421;51.030;4.006;2022-12-20T10:59:01;6.20;;;3.22;;
29416;SDS011;28421;51.030;4.006;2022-12-20T11:01:47;5.05;;;3.08;;
29416;SDS011;28421;51.030;4.006;2022-12-20T11:06:56;6.32;;;2.88;;
29416;SDS011;28421;51.030;4.006;2022-12-20T11:09:36;6.65;;;3.00;;
29416;SDS011;28421;51.030;4.006;2022-12-20T11:12:06;10.48;;;3.80;;
29416;SDS011;28421;51.030;4.006;2022-12-20T11:14:40;5.30;;;2.97;;
29416;SDS011;28421;51.030;4.006;2022-12-20T11:33:45;13.18;;;7.25;;
29416;SDS011;28421;51.030;4.006;2022-12-20T11:38:57;7.40;;;4.65;;
29416;SDS011;28421;51.030;4.006;2022-12-20T11:41:36;6.40;;;3.33;;
29416;SDS011;28421;51.030;4.006;2022-12-20T11:44:08;8.02;;;3.92;;
29416;SDS011;28421;51.030;4.006;2022-12-20T11:52:09;7.45;;;3.60;;
29416;SDS011;28421;51.030;4.006;2022-12-20T11:57:19;7.72;;;3.63;;
29416;SDS011;28421;51.030;4.006;2022-12-20T11:59:51;3.95;;;2.95;;
29416;SDS011;28421;51.030;4.006;2022-12-20T12:02:22;8.50;;;3.45;;
29416;SDS011;28421;51.030;4.006;2022-12-20T12:05:16;7.80;;;3.35;;
29416;SDS011;28421;51.030;4.006;2022-12-20T12:07:45;6.05;;;3.65;;
29416;SDS011;28421;51.030;4.006;2022-12-20T12:10:18;5.13;;;3.40;;
29416;SDS011;28421;51.030;4.006;2022-12-20T12:13:10;6.97;;;2.67;;
29416;SDS011;28421;51.030;4.006;2022-12-20T12:15:56;5.47;;;3.38;;
29416;SDS011;28421;51.030;4.006;2022-12-20T12:18:28;6.22;;;4.80;;
29416;SDS011;28421;51.030;4.006;2022-12-20T12:26:14;9.93;;;5.10;;
29416;SDS011;28421;51.030;4.006;2022-12-20T12:28:48;5.60;;;3.25;;
29416;SDS011;28421;51.030;4.006;2022-12-20T12:31:20;3.63;;;2.92;;
29416;SDS011;28421;51.030;4.006;2022-12-20T12:34:04;7.75;;;3.17;;
29416;SDS011;28421;51.030;4.006;2022-12-20T12:37:07;7.28;;;3.10;;
29416;SDS011;28421;51.030;4.006;2022-12-20T12:45:30;5.63;;;3.15;;
29416;SDS011;28421;51.030;4.006;2022-12-20T12:51:03;6.35;;;3.30;;
29416;SDS011;28421;51.030;4.006;2022-12-20T12:53:25;5.88;;;3.13;;
29416;SDS011;28421;51.030;4.006;2022-12-20T12:55:54;4.53;;;2.83;;
29416;SDS011;28421;51.030;4.006;2022-12-20T13:03:35;3.30;;;2.70;;
29416;SDS011;28421;51.030;4.006;2022-12-20T13:09:15;9.82;;;4.88;;
29416;SDS011;28421;51.030;4.006;2022-12-20T13:11:53;6.35;;;3.88;;
29416;SDS011;28421;51.030;4.006;2022-12-20T13:16:49;3.13;;;2.67;;
29416;SDS011;28421;51.030;4.006;2022-12-20T13:19:17;6.53;;;2.80;;
29416;SDS011;28421;51.030;4.006;2022-12-20T13:21:52;7.57;;;3.15;;
29416;SDS011;28421;51.030;4.006;2022-12-20T13:27:17;8.98;;;3.95;;
29416;SDS011;28421;51.030;4.006;2022-12-20T13:40:39;4.80;;;4.03;;
29416;SDS011;28421;51.030;4.006;2022-12-20T13:45:42;7.00;;;3.80;;
29416;SDS011;28421;51.030;4.006;2022-12-20T13:48:11;6.55;;;3.38;;
29416;SDS011;28421;51.030;4.006;2022-12-20T13:50:49;4.55;;;3.22;;
29416;SDS011;28421;51.030;4.006;2022-12-20T13:53:24;6.35;;;3.80;;
29416;SDS011;28421;51.030;4.006;2022-12-20T13:55:51;3.33;;;3.00;;
29416;SDS011;28421;51.030;4.006;2022-12-20T13:58:22;5.20;;;3.45;;
29416;SDS011;28421;51.030;4.006;2022-12-20T14:00:53;4.07;;;3.22;;
29416;SDS011;28421;51.030;4.006;2022-12-20T14:05:58;5.05;;;3.75;;
29416;SDS011;28421;51.030;4.006;2022-12-20T14:08:28;7.65;;;4.20;;
29416;SDS011;28421;51.030;4.006;2022-12-20T14:11:07;8.57;;;3.92;;
29416;SDS011;28421;51.030;4.006;2022-12-20T14:13:37;5.85;;;3.58;;
29416;SDS011;28421;51.030;4.006;2022-12-20T14:16:08;5.78;;;3.97;;
29416;SDS011;28421;51.030;4.006;2022-12-20T14:21:21;5.25;;;4.22;;
29416;SDS011;28421;51.030;4.006;2022-12-20T14:23:49;11.93;;;7.15;;
29416;SDS011;28421;51.030;4.006;2022-12-20T14:26:23;10.68;;;7.90;;
29416;SDS011;28421;51.030;4.006;2022-12-20T14:28:52;13.65;;;5.45;;
29416;SDS011;28421;51.030;4.006;2022-12-20T14:31:24;8.38;;;4.25;;
29416;SDS011;28421;51.030;4.006;2022-12-20T14:34:02;10.43;;;4.57;;
29416;SDS011;28421;51.030;4.006;2022-12-20T14:36:35;8.95;;;4.32;;
29416;SDS011;28421;51.030;4.006;2022-12-20T14:39:22;7.97;;;5.50;;
29416;SDS011;28421;51.030;4.006;2022-12-20T14:42:01;11.52;;;5.93;;
29416;SDS011;28421;51.030;4.006;2022-12-20T14:44:37;11.00;;;6.25;;
29416;SDS011;28421;51.030;4.006;2022-12-20T14:47:04;14.57;;;7.28;;
29416;SDS011;28421;51.030;4.006;2022-12-20T14:49:37;14.10;;;7.07;;
29416;SDS011;28421;51.030;4.006;2022-12-20T14:54:38;10.45;;;5.13;;
29416;SDS011;28421;51.030;4.006;2022-12-20T14:57:19;10.20;;;6.63;;
29416;SDS011;28421;51.030;4.006;2022-12-20T15:05:30;8.73;;;5.18;;
29416;SDS011;28421;51.030;4.006;2022-12-20T15:10:35;10.27;;;4.75;;
29416;SDS011;28421;51.030;4.006;2022-12-20T15:13:01;11.07;;;5.03;;
29416;SDS011;28421;51.030;4.006;2022-12-20T15:15:26;7.40;;;5.63;;
29416;SDS011;28421;51.030;4.006;2022-12-20T15:17:52;14.77;;;5.80;;
29416;SDS011;28421;51.030;4.006;2022-12-20T15:20:17;12.55;;;7.05;;
29416;SDS011;28421;51.030;4.006;2022-12-20T15:22:42;9.63;;;6.30;;
29416;SDS011;28421;51.030;4.006;2022-12-20T15:25:15;8.23;;;5.57;;
29416;SDS011;28421;51.030;4.006;2022-12-20T15:27:41;11.05;;;5.55;;
29416;SDS011;28421;51.030;4.006;2022-12-20T15:30:11;9.40;;;5.50;;
29416;SDS011;28421;51.030;4.006;2022-12-20T15:32:40;6.50;;;4.32;;
29416;SDS011;28421;51.030;4.006;2022-12-20T15:35:12;9.63;;;5.03;;
29416;SDS011;28421;51.030;4.006;2022-12-20T15:37:39;8.50;;;5.20;;
29416;SDS011;28421;51.030;4.006;2022-12-20T15:40:04;6.78;;;4.72;;
29416;SDS011;28421;51.030;4.006;2022-12-20T15:42:30;6.38;;;4.18;;
29416;SDS011;28421;51.030;4.006;2022-12-20T15:44:56;10.95;;;6.43;;
29416;SDS011;28421;51.030;4.006;2022-12-20T15:47:22;11.48;;;6.43;;
29416;SDS011;28421;51.030;4.006;2022-12-20T15:49:47;10.80;;;6.55;;
29416;SDS011;28421;51.030;4.006;2022-12-20T15:52:19;6.85;;;5.13;;
29416;SDS011;28421;51.030;4.006;2022-12-20T15:54:46;6.03;;;5.18;;
29416;SDS011;28421;51.030;4.006;2022-12-20T15:57:13;5.60;;;5.10;;
29416;SDS011;28421;51.030;4.006;2022-12-20T15:59:39;8.20;;;5.60;;
29416;SDS011;28421;51.030;4.006;2022-12-20T16:02:10;8.30;;;5.32;;
29416;SDS011;28421;51.030;4.006;2022-12-20T16:04:43;15.20;;;9.27;;
29416;SDS011;28421;51.030;4.006;2022-12-20T16:07:09;10.23;;;6.60;;
29416;SDS011;28421;51.030;4.006;2022-12-20T16:09:36;8.30;;;5.70;;
29416;SDS011;28421;51.030;4.006;2022-12-20T16:12:01;9.57;;;6.22;;
29416;SDS011;28421;51.030;4.006;2022-12-20T16:14:27;7.28;;;5.90;;
29416;SDS011;28421;51.030;4.006;2022-12-20T16:16:53;9.90;;;5.68;;
29416;SDS011;28421;51.030;4.006;2022-12-20T16:19:18;13.50;;;6.18;;
29416;SDS011;28421;51.030;4.006;2022-12-20T16:21:47;6.70;;;5.72;;
29416;SDS011;28421;51.030;4.006;2022-12-20T16:24:15;10.50;;;6.18;;
29416;SDS011;28421;51.030;4.006;2022-12-20T16:26:44;7.03;;;5.70;;
29416;SDS011;28421;51.030;4.006;2022-12-20T16:29:10;7.10;;;5.65;;
29416;SDS011;28421;51.030;4.006;2022-12-20T16:31:37;12.52;;;5.75;;
29416;SDS011;28421;51.030;4.006;2022-12-20T16:34:08;10.45;;;5.60;;
29416;SDS011;28421;51.030;4.006;2022-12-20T16:36:36;6.82;;;5.72;;
29416;SDS011;28421;51.030;4.006;2022-12-20T16:39:02;10.60;;;6.88;;
29416;SDS011;28421;51.030;4.006;2022-12-20T16:41:29;8.23;;;5.90;;
29416;SDS011;28421;51.030;4.006;2022-12-20T16:43:57;10.52;;;8.48;;
29416;SDS011;28421;51.030;4.006;2022-12-20T16:46:25;13.77;;;9.38;;
29416;SDS011;28421;51.030;4.006;2022-12-20T16:48:56;14.70;;;8.23;;
29416;SDS011;28421;51.030;4.006;2022-12-20T16:51:27;9.45;;;6.75;;
29416;SDS011;28421;51.030;4.006;2022-12-20T16:56:28;8.32;;;6.57;;
29416;SDS011;28421;51.030;4.006;2022-12-20T16:58:54;8.98;;;6.63;;
29416;SDS011;28421;51.030;4.006;2022-12-20T17:01:32;10.48;;;6.85;;
29416;SDS011;28421;51.030;4.006;2022-12-20T17:03:59;7.85;;;6.28;;
29416;SDS011;28421;51.030;4.006;2022-12-20T17:06:25;10.55;;;7.40;;
29416;SDS011;28421;51.030;4.006;2022-12-20T17:08:50;10.18;;;7.43;;
29416;SDS011;28421;51.030;4.006;2022-12-20T17:11:17;9.63;;;7.50;;
29416;SDS011;28421;51.030;4.006;2022-12-20T17:13:49;11.18;;;7.63;;
29416;SDS011;28421;51.030;4.006;2022-12-20T17:16:16;8.82;;;7.13;;
29416;SDS011;28421;51.030;4.006;2022-12-20T17:18:43;11.13;;;7.78;;
29416;SDS011;28421;51.030;4.006;2022-12-20T17:21:23;9.23;;;7.72;;
29416;SDS011;28421;51.030;4.006;2022-12-20T17:23:54;13.80;;;9.73;;
29416;SDS011;28421;51.030;4.006;2022-12-20T17:26:21;15.70;;;10.05;;
29416;SDS011;28421;51.030;4.006;2022-12-20T17:28:49;12.27;;;8.60;;
29416;SDS011;28421;51.030;4.006;2022-12-20T17:31:23;12.38;;;8.82;;
29416;SDS011;28421;51.030;4.006;2022-12-20T17:33:53;11.40;;;8.55;;
29416;SDS011;28421;51.030;4.006;2022-12-20T17:36:19;14.30;;;9.25;;
29416;SDS011;28421;51.030;4.006;2022-12-20T17:38:45;13.18;;;8.73;;
29416;SDS011;28421;51.030;4.006;2022-12-20T17:41:24;12.63;;;9.00;;
29416;SDS011;28421;51.030;4.006;2022-12-20T17:43:51;14.30;;;8.90;;
29416;SDS011;28421;51.030;4.006;2022-12-20T17:46:17;9.98;;;8.13;;
29416;SDS011;28421;51.030;4.006;2022-12-20T17:48:44;10.85;;;8.15;;
29416;SDS011;28421;51.030;4.006;2022-12-20T17:51:20;13.07;;;8.25;;
29416;SDS011;28421;51.030;4.006;2022-12-20T17:53:57;9.70;;;7.68;;
29416;SDS011;28421;51.030;4.006;2022-12-20T17:56:27;10.32;;;8.40;;
29416;SDS011;28421;51.030;4.006;2022-12-20T17:58:57;10.20;;;7.97;;
29416;SDS011;28421;51.030;4.006;2022-12-20T18:03:50;9.80;;;7.75;;
29416;SDS011;28421;51.030;4.006;2022-12-20T18:06:17;10.95;;;8.82;;
29416;SDS011;28421;51.030;4.006;2022-12-20T18:08:46;12.25;;;8.05;;
29416;SDS011;28421;51.030;4.006;2022-12-20T18:11:16;10.13;;;7.85;;
29416;SDS011;28421;51.030;4.006;2022-12-20T18:13:43;11.73;;;8.48;;
29416;SDS011;28421;51.030;4.006;2022-12-20T18:16:14;9.52;;;7.78;;
29416;SDS011;28421;51.030;4.006;2022-12-20T18:18:43;11.57;;;8.52;;
29416;SDS011;28421;51.030;4.006;2022-12-20T18:21:10;11.88;;;8.00;;
29416;SDS011;28421;51.030;4.006;2022-12-20T18:23:38;11.82;;;8.15;;
29416;SDS011;28421;51.030;4.006;2022-12-20T18:26:08;13.60;;;8.75;;
29416;SDS011;28421;51.030;4.006;2022-12-20T18:28:36;10.93;;;8.05;;
29416;SDS011;28421;51.030;4.006;2022-12-20T18:31:03;10.90;;;8.23;;
29416;SDS011;28421;51.030;4.006;2022-12-20T18:33:30;11.55;;;8.32;;
29416;SDS011;28421;51.030;4.006;2022-12-20T18:35:59;13.30;;;8.20;;
29416;SDS011;28421;51.030;4.006;2022-12-20T18:38:45;9.85;;;7.53;;
29416;SDS011;28421;51.030;4.006;2022-12-20T18:41:12;12.63;;;8.77;;
29416;SDS011;28421;51.030;4.006;2022-12-20T18:43:39;10.95;;;8.98;;
29416;SDS011;28421;51.030;4.006;2022-12-20T18:46:06;9.98;;;8.60;;
29416;SDS011;28421;51.030;4.006;2022-12-20T18:48:33;10.60;;;8.43;;
29416;SDS011;28421;51.030;4.006;2022-12-20T18:51:05;11.05;;;8.63;;
29416;SDS011;28421;51.030;4.006;2022-12-20T18:53:34;11.43;;;8.48;;
29416;SDS011;28421;51.030;4.006;2022-12-20T18:56:04;11.57;;;9.05;;
29416;SDS011;28421;51.030;4.006;2022-12-20T18:58:31;12.45;;;9.27;;
29416;SDS011;28421;51.030;4.006;2022-12-20T19:01:02;15.52;;;10.80;;
29416;SDS011;28421;51.030;4.006;2022-12-20T19:03:30;13.50;;;9.98;;
29416;SDS011;28421;51.030;4.006;2022-12-20T19:05:56;13.77;;;9.80;;
29416;SDS011;28421;51.030;4.006;2022-12-20T19:08:22;13.48;;;9.45;;
29416;SDS011;28421;51.030;4.006;2022-12-20T19:10:48;17.20;;;11.32;;
29416;SDS011;28421;51.030;4.006;2022-12-20T19:13:15;14.75;;;11.43;;
29416;SDS011;28421;51.030;4.006;2022-12-20T19:15:44;19.65;;;13.15;;
29416;SDS011;28421;51.030;4.006;2022-12-20T19:18:11;18.65;;;12.68;;
29416;SDS011;28421;51.030;4.006;2022-12-20T19:20:37;14.57;;;10.52;;
29416;SDS011;28421;51.030;4.006;2022-12-20T19:23:04;17.63;;;12.15;;
29416;SDS011;28421;51.030;4.006;2022-12-20T19:25:31;15.57;;;11.30;;
29416;SDS011;28421;51.030;4.006;2022-12-20T19:27:57;18.13;;;12.02;;
29416;SDS011;28421;51.030;4.006;2022-12-20T19:30:23;17.17;;;12.27;;
29416;SDS011;28421;51.030;4.006;2022-12-20T19:32:48;18.40;;;11.25;;
29416;SDS011;28421;51.030;4.006;2022-12-20T19:35:13;15.73;;;11.00;;
29416;SDS011;28421;51.030;4.006;2022-12-20T19:37:39;14.43;;;10.93;;
29416;SDS011;28421;51.030;4.006;2022-12-20T19:40:05;14.40;;;10.57;;
29416;SDS011;28421;51.030;4.006;2022-12-20T19:42:30;21.85;;;13.57;;
29416;SDS011;28421;51.030;4.006;2022-12-20T19:44:56;17.65;;;12.05;;
29416;SDS011;28421;51.030;4.006;2022-12-20T19:47:21;26.33;;;14.82;;
29416;SDS011;28421;51.030;4.006;2022-12-20T19:49:47;21.95;;;13.07;;
29416;SDS011;28421;51.030;4.006;2022-12-20T19:52:23;19.17;;;11.73;;
29416;SDS011;28421;51.030;4.006;2022-12-20T19:54:49;15.82;;;10.85;;
29416;SDS011;28421;51.030;4.006;2022-12-20T19:57:14;15.73;;;11.70;;
29416;SDS011;28421;51.030;4.006;2022-12-20T19:59:40;15.00;;;11.60;;
29416;SDS011;28421;51.030;4.006;2022-12-20T20:02:05;21.85;;;12.80;;
29416;SDS011;28421;51.030;4.006;2022-12-20T20:04:30;18.08;;;12.73;;
29416;SDS011;28421;51.030;4.006;2022-12-20T20:06:57;18.75;;;13.48;;
29416;SDS011;28421;51.030;4.006;2022-12-20T20:09:22;16.70;;;11.90;;
29416;SDS011;28421;51.030;4.006;2022-12-20T20:11:48;18.60;;;12.68;;
29416;SDS011;28421;51.030;4.006;2022-12-20T20:14:13;18.70;;;12.38;;
29416;SDS011;28421;51.030;4.006;2022-12-20T20:16:38;16.35;;;12.02;;
29416;SDS011;28421;51.030;4.006;2022-12-20T20:19:04;15.98;;;12.77;;
29416;SDS011;28421;51.030;4.006;2022-12-20T20:21:29;18.70;;;13.38;;
29416;SDS011;28421;51.030;4.006;2022-12-20T20:23:55;21.52;;;14.77;;
29416;SDS011;28421;51.030;4.006;2022-12-20T20:26:25;22.48;;;14.73;;
29416;SDS011;28421;51.030;4.006;2022-12-20T20:28:53;22.40;;;14.77;;
29416;SDS011;28421;51.030;4.006;2022-12-20T20:31:19;23.17;;;15.75;;
29416;SDS011;28421;51.030;4.006;2022-12-20T20:33:45;21.20;;;15.18;;
29416;SDS011;28421;51.030;4.006;2022-12-20T20:36:15;24.60;;;15.15;;
29416;SDS011;28421;51.030;4.006;2022-12-20T20:38:42;26.08;;;16.95;;
29416;SDS011;28421;51.030;4.006;2022-12-20T20:41:08;27.50;;;17.85;;
29416;SDS011;28421;51.030;4.006;2022-12-20T20:43:34;28.10;;;18.08;;
29416;SDS011;28421;51.030;4.006;2022-12-20T20:46:07;32.58;;;19.98;;
29416;SDS011;28421;51.030;4.006;2022-12-20T20:48:35;25.75;;;17.20;;
29416;SDS011;28421;51.030;4.006;2022-12-20T20:51:01;24.05;;;15.68;;
29416;SDS011;28421;51.030;4.006;2022-12-20T20:53:26;23.80;;;15.95;;
29416;SDS011;28421;51.030;4.006;2022-12-20T20:55:52;25.55;;;15.13;;
29416;SDS011;28421;51.030;4.006;2022-12-20T20:58:17;22.63;;;14.63;;
29416;SDS011;28421;51.030;4.006;2022-12-20T21:00:43;26.77;;;16.95;;
29416;SDS011;28421;51.030;4.006;2022-12-20T21:03:08;25.42;;;15.23;;
29416;SDS011;28421;51.030;4.006;2022-12-20T21:05:36;25.00;;;15.40;;
29416;SDS011;28421;51.030;4.006;2022-12-20T21:08:01;24.60;;;14.13;;
29416;SDS011;28421;51.030;4.006;2022-12-20T21:10:27;22.90;;;14.70;;
29416;SDS011;28421;51.030;4.006;2022-12-20T21:12:53;23.27;;;14.50;;
29416;SDS011;28421;51.030;4.006;2022-12-20T21:15:18;22.55;;;14.43;;
29416;SDS011;28421;51.030;4.006;2022-12-20T21:17:44;24.52;;;15.10;;
29416;SDS011;28421;51.030;4.006;2022-12-20T21:20:10;23.67;;;15.07;;
29416;SDS011;28421;51.030;4.006;2022-12-20T21:22:36;25.00;;;17.20;;
29416;SDS011;28421;51.030;4.006;2022-12-20T21:25:02;28.70;;;17.90;;
29416;SDS011;28421;51.030;4.006;2022-12-20T21:27:29;30.58;;;16.30;;
29416;SDS011;28421;51.030;4.006;2022-12-20T21:29:54;28.30;;;17.30;;
29416;SDS011;28421;51.030;4.006;2022-12-20T21:32:20;32.13;;;18.48;;
29416;SDS011;28421;51.030;4.006;2022-12-20T21:34:45;24.50;;;16.10;;
29416;SDS011;28421;51.030;4.006;2022-12-20T21:37:11;24.55;;;15.80;;
29416;SDS011;28421;51.030;4.006;2022-12-20T21:39:36;22.88;;;14.77;;
29416;SDS011;28421;51.030;4.006;2022-12-20T21:42:02;29.98;;;16.63;;
29416;SDS011;28421;51.030;4.006;2022-12-20T21:44:27;24.30;;;15.55;;
29416;SDS011;28421;51.030;4.006;2022-12-20T21:46:52;19.38;;;14.30;;
29416;SDS011;28421;51.030;4.006;2022-12-20T21:49:18;23.85;;;15.43;;
29416;SDS011;28421;51.030;4.006;2022-12-20T21:51:43;26.42;;;16.17;;
29416;SDS011;28421;51.030;4.006;2022-12-20T21:54:08;34.47;;;18.05;;
29416;SDS011;28421;51.030;4.006;2022-12-20T21:56:34;26.27;;;15.40;;
29416;SDS011;28421;51.030;4.006;2022-12-20T21:59:00;27.92;;;15.98;;
